Grass Valley, Nevada
Current Conditions -  °F | °C
As of 2:56 AM on Monday 20 Oct 2014 (Local Time) from KWMC Reporting Station
Clear Clear  
Wind Chill: 33°   Ceiling: Unl
Heat Index: 38°   Visibility: 10mi
Dew Point: 23°   Wind: 7mph
Humidity: 55%   Direction: 120°ESE
Pressure: 29.94"   Gusts: NA
Location:  41.1353°N, 118.186°W
Report Text: KWMC 200956Z AUTO 12006KT 10SM CLR 03/M05 A2994 RMK AO2 SLP115 T00331050
Loading
Personal Weather Stations






























Interactive Weather Map
Tropical Storm Tracking
New forecast layout! Learn more

10-Day Weather Forecast

Advertisements
Track Severe Weather on mobile